Time;durP1;ratioP1;P1;durP2;ratioP2;P2;SDS_P1;SDS_P2;PMS_P1;PMS_P2;Temp;Humidity;BMP_temperature;BMP_pressure;BME280_temperature;BME280_humidity;BME280_pressure;Samples;Min_cycle;Max_cycle;Signal;HPM_P1;HPM_P2
2024/01/01 00:00:08;;;;;;;;;37.75;34.50;;;;;8.63;44.16;99064.09;5034276;28;8958;-77
2024/01/01 00:03:00;;;;;;;;;30.80;30.80;;;;;8.45;44.49;99060.94;5070133;28;9597;-77
2024/01/01 00:05:30;;;;;;;;;35.60;34.60;;;;;8.54;44.65;99056.41;5070058;28;9606;-77
2024/01/01 00:07:59;;;;;;;;;40.50;34.25;;;;;8.24;45.50;99050.88;5070102;28;8839;-77
2024/01/01 00:10:29;;;;;;;;;40.00;35.00;;;;;8.34;45.54;99054.19;5051537;28;8847;-80
2024/01/01 00:12:58;;;;;;;;;35.40;31.80;;;;;8.64;44.50;99047.47;5068927;28;8866;-78
2024/01/01 00:15:27;;;;;;;;;32.20;29.80;;;;;8.74;44.02;99053.38;5070531;28;8869;-78
2024/01/01 00:17:56;;;;;;;;;32.60;32.40;;;;;8.75;44.32;99053.34;5070198;28;9028;-77
2024/01/01 00:20:26;;;;;;;;;38.50;34.25;;;;;8.92;43.64;99044.25;5042238;28;8869;-75
2024/01/01 00:22:55;;;;;;;;;44.00;37.25;;;;;8.79;44.13;99041.03;5076489;28;8850;-77
2024/01/01 00:25:24;;;;;;;;;39.50;35.50;;;;;8.90;43.80;99043.44;5067934;28;8874;-77
2024/01/01 00:27:54;;;;;;;;;42.25;37.00;;;;;8.87;44.01;99036.47;5070361;28;8842;-77
2024/01/01 00:30:23;;;;;;;;;41.75;34.25;;;;;8.95;43.88;99031.06;5052859;28;8854;-77
2024/01/01 00:32:52;;;;;;;;;38.60;34.60;;;;;8.93;43.57;99038.09;5070212;28;8870;-79
2024/01/01 00:35:21;;;;;;;;;46.00;37.25;;;;;8.99;43.43;99038.00;5052321;28;8854;-77
2024/01/01 00:37:51;;;;;;;;;44.00;37.00;;;;;8.88;43.50;99048.69;5018867;28;8854;-78
2024/01/01 00:40:19;;;;;;;;;46.00;38.25;;;;;8.74;44.21;99048.13;5068672;28;8901;-78
2024/01/01 00:42:48;;;;;;;;;41.25;36.75;;;;;8.53;44.61;99052.91;5052089;28;8944;-78
2024/01/01 00:45:18;;;;;;;;;38.25;34.50;;;;;8.55;44.75;99045.88;5068458;28;8866;-78
2024/01/01 00:47:48;;;;;;;;;40.00;32.80;;;;;8.37;44.94;99041.06;5068021;28;8931;-78
2024/01/01 00:50:17;;;;;;;;;36.20;33.40;;;;;8.26;45.06;99031.59;5068181;28;9507;-79
2024/01/01 00:52:46;;;;;;;;;32.40;31.80;;;;;8.22;45.04;99026.47;5051504;28;9665;-79
2024/01/01 00:55:15;;;;;;;;;29.20;28.00;;;;;8.31;44.92;99030.66;5068178;28;8861;-78
2024/01/01 00:57:44;;;;;;;;;35.60;33.00;;;;;8.38;44.94;99032.28;5085106;28;8870;-76
2024/01/01 01:00:13;;;;;;;;;36.00;34.60;;;;;8.53;44.37;99034.56;5069267;28;8851;-78
2024/01/01 01:02:44;;;;;;;;;36.60;33.20;;;;;8.41;44.39;99024.38;5084159;28;8855;-79
2024/01/01 01:05:12;;;;;;;;;36.20;34.20;;;;;8.36;44.94;99034.06;5084597;28;9078;-76
2024/01/01 01:07:42;;;;;;;;;32.80;31.80;;;;;8.55;44.76;99019.69;5034339;28;8854;-78
2024/01/01 01:10:10;;;;;;;;;26.00;26.00;;;;;8.55;44.36;99021.47;5067612;28;8839;-76
2024/01/01 01:12:39;;;;;;;;;32.80;29.00;;;;;8.43;44.71;99014.72;5067764;28;8862;-79
2024/01/01 01:15:09;;;;;;;;;34.00;32.00;;;;;8.53;44.47;99020.63;5067900;28;8992;-76
2024/01/01 01:17:38;;;;;;;;;33.20;30.20;;;;;8.53;44.50;99011.00;5051582;28;8878;-78
2024/01/01 01:20:09;;;;;;;;;33.60;31.20;;;;;8.58;44.25;98996.06;5067672;28;8870;-77
2024/01/01 01:22:38;;;;;;;;;32.80;31.60;;;;;8.57;44.10;98999.59;5068051;28;8886;-78
2024/01/01 01:25:09;;;;;;;;;27.80;27.40;;;;;8.37;44.83;98993.91;5067534;28;9782;-77
2024/01/01 01:27:38;;;;;;;;;27.00;27.00;;;;;8.46;44.48;98985.88;5001026;28;9728;-77
2024/01/01 01:30:08;;;;;;;;;30.80;30.40;;;;;8.34;44.93;98983.50;5026446;28;8872;-79
2024/01/01 01:32:37;;;;;;;;;33.60;31.40;;;;;8.39;44.63;98977.25;5026625;28;9074;-80
2024/01/01 01:35:08;;;;;;;;;33.00;31.60;;;;;8.27;45.12;98980.97;5026468;28;8911;-77
2024/01/01 01:37:37;;;;;;;;;37.60;33.60;;;;;8.26;44.72;98986.22;4968728;28;8856;-79
2024/01/01 01:40:07;;;;;;;;;38.00;33.60;;;;;8.27;44.48;98986.22;5046554;28;9725;-80
2024/01/01 01:42:36;;;;;;;;;31.20;28.00;;;;;8.28;45.03;98981.81;5015171;28;8849;-76
2024/01/01 01:45:06;;;;;;;;;29.60;28.80;;;;;8.36;45.00;98973.84;4997744;28;8849;-77
2024/01/01 01:47:36;;;;;;;;;35.40;28.40;;;;;8.41;45.01;98972.84;4983052;28;8848;-77
2024/01/01 01:50:07;;;;;;;;;30.00;28.40;;;;;8.45;44.68;98966.63;5033829;28;8853;-78
2024/01/01 01:52:39;;;;;;;;;35.00;30.40;;;;;8.42;44.78;98966.72;4993756;28;8867;-78
2024/01/01 01:55:09;;;;;;;;;29.20;29.20;;;;;8.46;44.44;98962.28;4989967;28;8862;-77
2024/01/01 01:57:40;;;;;;;;;24.60;24.20;;;;;8.30;44.67;98966.09;5006414;28;8912;-77
2024/01/01 02:00:10;;;;;;;;;32.80;25.40;;;;;8.51;44.43;98962.19;4992907;28;8868;-79
2024/01/01 02:02:40;;;;;;;;;30.60;30.60;;;;;8.17;44.68;98961.09;5026390;28;8942;-77
2024/01/01 02:05:10;;;;;;;;;24.00;24.00;;;;;8.41;44.39;98949.28;5042479;28;9007;-77
2024/01/01 02:07:45;;;;;;;;;27.00;25.00;;;;;8.27;45.00;98957.41;4993614;28;9660;-77
2024/01/01 02:10:14;;;;;;;;;25.20;23.60;;;;;8.25;44.96;98953.97;5026103;28;8852;-77
2024/01/01 02:12:45;;;;;;;;;26.00;23.40;;;;;8.54;44.23;98943.78;5026195;28;8849;-77
2024/01/01 02:15:14;;;;;;;;;23.60;22.40;;;;;8.61;43.92;98938.38;5009659;28;8876;-76
2024/01/01 02:17:43;;;;;;;;;21.40;20.80;;;;;8.78;44.06;98935.34;5025974;28;8887;-77
2024/01/01 02:20:12;;;;;;;;;23.00;22.20;;;;;8.85;43.55;98925.56;5025630;28;8866;-77
2024/01/01 02:22:48;;;;;;;;;26.20;25.00;;;;;8.90;43.66;98926.34;5026272;28;8882;-78
2024/01/01 02:25:18;;;;;;;;;23.20;22.60;;;;;8.76;43.55;98937.16;5036536;28;8873;-78
2024/01/01 02:27:48;;;;;;;;;21.20;20.60;;;;;8.78;43.51;98927.50;5071348;28;8865;-78
2024/01/01 02:30:16;;;;;;;;;22.20;20.80;;;;;8.71;43.63;98927.69;5071230;28;8909;-77
2024/01/01 02:32:45;;;;;;;;;22.80;21.80;;;;;8.63;43.88;98933.09;5071896;28;8849;-77
2024/01/01 02:35:14;;;;;;;;;19.80;19.80;;;;;8.55;44.21;98929.78;5004778;28;8973;-76
2024/01/01 02:37:43;;;;;;;;;15.80;13.00;;;;;8.68;43.66;98931.22;5037855;28;8914;-77
2024/01/01 02:40:13;;;;;;;;;23.80;23.40;;;;;8.77;43.52;98922.28;5070785;28;8850;-77
2024/01/01 02:42:44;;;;;;;;;21.60;19.40;;;;;8.62;44.06;98923.50;5071937;28;10191;-77
2024/01/01 02:45:13;;;;;;;;;20.80;19.80;;;;;8.82;43.27;98920.44;5069108;28;8865;-77
2024/01/01 02:47:43;;;;;;;;;25.20;22.00;;;;;8.58;43.92;98917.47;5017109;28;8867;-77
2024/01/01 02:50:11;;;;;;;;;19.80;19.80;;;;;8.59;44.12;98915.69;5066996;28;9704;-77
2024/01/01 02:52:41;;;;;;;;;21.40;21.40;;;;;8.67;43.88;98918.13;5066792;28;8861;-77
2024/01/01 02:55:10;;;;;;;;;23.20;20.20;;;;;8.51;43.87;98907.16;5050405;28;8861;-77
2024/01/01 02:57:39;;;;;;;;;22.00;19.80;;;;;8.64;43.97;98904.22;5050511;28;8860;-77
2024/01/01 03:00:14;;;;;;;;;19.20;19.00;;;;;8.46;43.83;98896.81;5067255;28;8861;-77
2024/01/01 03:02:43;;;;;;;;;22.20;20.60;;;;;8.50;44.13;98893.22;5070017;28;8846;-76
2024/01/01 03:05:12;;;;;;;;;27.40;23.60;;;;;8.51;43.65;98889.69;5070150;28;9658;-77
2024/01/01 03:07:41;;;;;;;;;18.80;18.60;;;;;8.72;43.35;98890.09;5071380;28;8919;-77
2024/01/01 03:10:10;;;;;;;;;22.20;21.00;;;;;8.51;43.54;98894.91;5070216;28;9089;-77
2024/01/01 03:12:40;;;;;;;;;28.80;26.80;;;;;8.40;44.21;98889.06;5069641;28;8866;-76
2024/01/01 03:15:11;;;;;;;;;22.80;22.60;;;;;8.43;44.18;98895.09;5053676;28;8839;-76
2024/01/01 03:17:41;;;;;;;;;21.80;20.80;;;;;8.42;43.90;98882.91;5070249;28;8959;-77
2024/01/01 03:20:11;;;;;;;;;24.80;21.40;;;;;8.60;43.83;98878.13;5075447;28;8900;-77
2024/01/01 03:22:41;;;;;;;;;18.00;17.00;;;;;8.61;43.54;98875.50;5070796;28;8842;-78
2024/01/01 03:25:11;;;;;;;;;21.60;19.80;;;;;8.61;43.32;98879.84;5071501;28;8858;-76
2024/01/01 03:27:40;;;;;;;;;18.80;18.20;;;;;8.69;43.17;98877.06;5069851;28;8854;-77
2024/01/01 03:30:11;;;;;;;;;20.40;19.40;;;;;8.80;42.95;98877.69;5036030;28;8987;-76
2024/01/01 03:32:41;;;;;;;;;18.60;16.40;;;;;8.72;43.31;98882.22;5036396;28;8851;-77
2024/01/01 03:35:10;;;;;;;;;26.00;21.40;;;;;8.76;43.19;98883.88;4998977;28;8841;-77
2024/01/01 03:37:40;;;;;;;;;19.00;19.00;;;;;8.86;42.92;98880.13;5051081;28;8963;-76
2024/01/01 03:40:10;;;;;;;;;28.40;23.40;;;;;8.84;43.16;98876.69;5048119;28;8850;-76
2024/01/01 03:42:39;;;;;;;;;19.00;18.00;;;;;8.79;43.22;98866.31;5028241;28;8988;-77
2024/01/01 03:45:09;;;;;;;;;21.40;18.20;;;;;8.81;43.14;98866.28;4989508;28;8872;-76
2024/01/01 03:47:39;;;;;;;;;20.00;19.60;;;;;8.81;43.15;98858.41;4957883;28;8866;-76
2024/01/01 03:50:08;;;;;;;;;18.20;16.80;;;;;8.69;43.31;98862.22;5006631;28;8812;-78
2024/01/01 03:52:38;;;;;;;;;19.80;18.60;;;;;8.76;42.71;98869.03;5008606;28;8954;-77
2024/01/01 03:55:08;;;;;;;;;21.80;20.20;;;;;8.95;42.64;98856.31;5008429;28;8855;-77
2024/01/01 03:57:37;;;;;;;;;22.60;18.00;;;;;9.06;42.47;98865.66;4945638;28;8844;-76
2024/01/01 04:00:11;;;;;;;;;22.80;20.20;;;;;9.11;42.15;98866.41;5010602;28;8983;-77
2024/01/01 04:02:42;;;;;;;;;18.80;15.20;;;;;9.18;42.01;98862.75;4992545;28;8844;-78
2024/01/01 04:05:12;;;;;;;;;23.60;21.60;;;;;8.96;42.66;98863.28;5008539;28;8851;-76
2024/01/01 04:07:41;;;;;;;;;26.40;23.20;;;;;9.07;42.43;98857.75;5008248;28;8852;-77
2024/01/01 04:10:10;;;;;;;;;20.40;18.80;;;;;9.09;42.26;98855.97;5008092;28;8860;-77
2024/01/01 04:12:39;;;;;;;;;11.20;11.00;;;;;8.86;42.63;98851.31;5008218;28;8840;-77
2024/01/01 04:15:08;;;;;;;;;19.00;18.00;;;;;8.76;43.02;98855.03;4975498;28;8917;-78
2024/01/01 04:17:38;;;;;;;;;18.40;17.00;;;;;8.78;43.09;98850.63;5007924;28;8888;-77
2024/01/01 04:20:10;;;;;;;;;19.40;17.40;;;;;8.80;42.89;98847.09;5023136;28;8846;-77
2024/01/01 04:22:42;;;;;;;;;13.40;13.20;;;;;8.79;43.32;98845.34;5047778;28;8904;-76
2024/01/01 04:25:11;;;;;;;;;18.00;17.60;;;;;8.83;42.66;98849.59;5012177;28;8868;-77
2024/01/01 04:27:40;;;;;;;;;17.20;16.60;;;;;8.95;42.68;98847.56;5070346;28;8850;-79
2024/01/01 04:30:10;;;;;;;;;22.20;18.00;;;;;8.77;42.83;98846.28;5069962;28;8985;-77
2024/01/01 04:32:39;;;;;;;;;19.20;15.60;;;;;8.83;43.03;98841.75;5069934;28;8855;-77
2024/01/01 04:35:10;;;;;;;;;16.00;15.00;;;;;8.89;43.03;98832.00;5086319;28;8904;-78
2024/01/01 04:37:39;;;;;;;;;20.80;19.60;;;;;8.83;42.49;98828.63;5086926;28;8876;-78
2024/01/01 04:40:08;;;;;;;;;17.60;17.60;;;;;8.99;42.37;98825.66;5051529;28;8866;-76
2024/01/01 04:42:38;;;;;;;;;15.40;14.20;;;;;9.03;42.59;98828.13;5068680;28;8851;-78
2024/01/01 04:45:07;;;;;;;;;20.00;18.60;;;;;9.17;42.18;98827.75;5069584;28;8874;-78
2024/01/01 04:47:36;;;;;;;;;12.60;12.60;;;;;9.19;42.28;98819.88;5069411;28;8862;-77
2024/01/01 04:50:06;;;;;;;;;13.00;13.00;;;;;9.37;41.87;98816.75;5069476;28;9065;-77
2024/01/01 04:52:36;;;;;;;;;18.80;13.20;;;;;9.37;41.71;98819.38;5069721;28;8847;-77
2024/01/01 04:55:06;;;;;;;;;16.00;15.20;;;;;9.40;41.60;98824.53;5068522;28;8858;-77
2024/01/01 04:57:35;;;;;;;;;18.40;16.20;;;;;9.74;41.21;98830.59;5069949;28;8858;-76
2024/01/01 05:00:04;;;;;;;;;18.80;15.60;;;;;9.76;40.85;98820.91;5069577;28;8894;-77
2024/01/01 05:02:33;;;;;;;;;18.20;15.80;;;;;9.75;40.90;98827.94;5034612;28;8935;-78
2024/01/01 05:05:04;;;;;;;;;21.80;20.20;;;;;9.84;40.92;98823.31;5069516;28;8997;-78
2024/01/01 05:07:33;;;;;;;;;22.00;19.60;;;;;10.02;40.28;98810.50;5068071;28;8870;-78
2024/01/01 05:10:03;;;;;;;;;14.40;13.40;;;;;10.14;40.04;98804.03;5069277;28;9567;-77
2024/01/01 05:12:32;;;;;;;;;17.20;17.20;;;;;10.12;40.33;98805.84;5069324;28;9016;-78
2024/01/01 05:15:01;;;;;;;;;16.80;16.80;;;;;10.12;40.32;98800.59;5068966;28;9695;-78
2024/01/01 05:17:31;;;;;;;;;20.80;18.60;;;;;10.20;40.05;98805.59;5068924;28;8843;-79
2024/01/01 05:20:00;;;;;;;;;21.20;19.40;;;;;10.03;40.39;98798.25;5069342;28;8854;-78
2024/01/01 05:22:29;;;;;;;;;17.00;17.00;;;;;10.12;40.28;98802.34;5068964;28;9626;-78
2024/01/01 05:24:58;;;;;;;;;21.20;17.00;;;;;10.06;40.36;98818.28;5069257;28;8858;-78
2024/01/01 05:27:29;;;;;;;;;11.00;11.00;;;;;10.15;40.05;98810.97;5067339;28;8939;-77
2024/01/01 05:29:58;;;;;;;;;17.60;17.60;;;;;10.12;40.21;98816.34;5068733;28;8859;-79
2024/01/01 05:32:27;;;;;;;;;20.80;15.80;;;;;10.13;39.98;98807.56;5068753;28;8861;-78
2024/01/01 05:34:56;;;;;;;;;14.20;14.20;;;;;10.11;40.25;98805.88;5067562;28;8854;-77
2024/01/01 05:37:25;;;;;;;;;15.60;14.40;;;;;10.34;39.64;98798.13;5050029;28;8859;-78
2024/01/01 05:39:54;;;;;;;;;15.20;13.40;;;;;10.27;39.76;98795.75;5068821;28;8867;-77
2024/01/01 05:42:23;;;;;;;;;21.20;20.20;;;;;10.17;40.20;98792.56;5067299;28;8846;-78
2024/01/01 05:44:53;;;;;;;;;16.00;16.00;;;;;10.24;39.97;98783.59;5069190;28;8885;-78
2024/01/01 05:47:22;;;;;;;;;20.60;19.40;;;;;9.94;40.68;98793.28;5070157;28;9000;-78
2024/01/01 05:49:51;;;;;;;;;18.00;17.40;;;;;9.93;40.38;98788.91;5069009;28;8854;-77
2024/01/01 05:52:21;;;;;;;;;14.20;13.00;;;;;9.65;41.04;98797.63;5068754;28;8855;-77
2024/01/01 05:54:50;;;;;;;;;9.20;9.20;;;;;9.62;41.28;98795.09;5050204;28;8981;-76
2024/01/01 05:57:20;;;;;;;;;19.00;16.20;;;;;9.85;40.78;98786.53;5067654;28;8871;-77
2024/01/01 05:59:48;;;;;;;;;14.60;12.40;;;;;9.85;40.74;98791.78;5072207;28;8857;-76
2024/01/01 06:02:19;;;;;;;;;17.60;17.00;;;;;9.97;40.92;98798.41;5072823;28;8932;-76
2024/01/01 06:04:48;;;;;;;;;18.60;18.20;;;;;9.92;40.54;98797.72;5072812;28;8850;-76
2024/01/01 06:07:17;;;;;;;;;18.00;15.40;;;;;9.97;40.42;98801.94;5072615;28;8850;-77
2024/01/01 06:09:46;;;;;;;;;15.20;15.20;;;;;9.92;40.47;98811.69;5074082;28;8846;-76
2024/01/01 06:12:15;;;;;;;;;14.60;14.60;;;;;9.86;40.95;98811.00;5073074;28;8846;-76
2024/01/01 06:14:45;;;;;;;;;13.40;13.40;;;;;9.84;40.78;98807.56;5073096;28;8846;-77
2024/01/01 06:17:14;;;;;;;;;14.80;14.80;;;;;9.87;40.52;98805.72;5074474;28;9673;-75
2024/01/01 06:19:50;;;;;;;;;21.20;17.00;;;;;9.73;41.04;98800.03;5042228;28;8835;-77
2024/01/01 06:22:20;;;;;;;;;14.00;14.00;;;;;9.69;41.14;98795.75;5072960;28;8838;-77
2024/01/01 06:24:50;;;;;;;;;20.00;17.00;;;;;9.83;40.82;98793.59;5070861;28;8893;-76
2024/01/01 06:27:19;;;;;;;;;14.60;14.40;;;;;9.84;40.92;98787.44;5071955;28;8928;-77
2024/01/01 06:29:48;;;;;;;;;15.60;13.60;;;;;9.85;40.88;98785.69;5072145;28;8851;-78
2024/01/01 06:32:17;;;;;;;;;14.00;14.00;;;;;9.86;40.79;98790.00;5071985;28;8847;-77
2024/01/01 06:34:46;;;;;;;;;17.20;15.40;;;;;9.68;41.33;98788.81;5072350;28;8884;-77
2024/01/01 06:37:16;;;;;;;;;16.60;15.40;;;;;9.70;41.31;98792.25;5071555;28;8846;-77
2024/01/01 06:39:45;;;;;;;;;14.00;14.00;;;;;9.79;41.06;98787.56;5067519;28;9002;-76
2024/01/01 06:42:15;;;;;;;;;18.00;15.60;;;;;9.70;41.39;98793.09;5034123;28;8940;-75
2024/01/01 06:44:46;;;;;;;;;19.40;16.20;;;;;9.89;40.99;98793.41;5052182;28;9583;-76
2024/01/01 06:47:15;;;;;;;;;22.40;20.20;;;;;9.64;41.53;98792.44;5051914;28;8845;-77
2024/01/01 06:49:44;;;;;;;;;14.60;14.60;;;;;9.70;41.63;98797.50;5054538;28;8940;-77
2024/01/01 06:52:13;;;;;;;;;16.40;15.00;;;;;9.71;41.64;98801.84;5053885;28;9001;-77
2024/01/01 06:54:43;;;;;;;;;17.40;14.20;;;;;9.73;41.50;98794.78;5071737;28;8854;-78
2024/01/01 06:57:12;;;;;;;;;15.40;14.20;;;;;9.79;41.46;98791.97;5071429;28;9023;-78
2024/01/01 06:59:41;;;;;;;;;14.20;12.60;;;;;9.80;41.34;98789.31;5070445;28;8862;-76
2024/01/01 07:02:10;;;;;;;;;15.20;15.20;;;;;9.79;41.35;98795.44;5071621;28;8924;-77
2024/01/01 07:04:39;;;;;;;;;19.80;19.80;;;;;9.79;41.19;98791.97;5071192;28;8874;-77
2024/01/01 07:07:08;;;;;;;;;17.40;16.60;;;;;9.67;41.77;98787.94;5071261;28;8854;-79
2024/01/01 07:09:38;;;;;;;;;16.00;16.00;;;;;9.67;41.83;98774.84;5071097;28;8993;-77
2024/01/01 07:12:20;;;;;;;;;18.60;17.00;;;;;9.87;41.62;98781.25;5052714;28;8826;-77
2024/01/01 07:14:48;;;;;;;;;19.40;17.40;;;;;9.72;41.86;98775.53;5071494;28;8850;-76
2024/01/01 07:17:19;;;;;;;;;21.60;20.80;;;;;9.88;41.57;98785.59;5028427;28;8884;-77
2024/01/01 07:19:48;;;;;;;;;17.20;16.80;;;;;10.04;41.23;98781.56;5028496;28;8869;-78
2024/01/01 07:22:17;;;;;;;;;16.40;16.40;;;;;10.00;41.29;98772.94;5028432;28;8857;-77
2024/01/01 07:24:46;;;;;;;;;19.60;19.60;;;;;9.91;41.41;98777.59;5029110;28;8860;-76
2024/01/01 07:27:15;;;;;;;;;16.40;15.40;;;;;10.06;41.38;98777.13;5028525;28;8857;-76
2024/01/01 07:29:46;;;;;;;;;17.80;16.80;;;;;9.95;41.50;98781.84;5028550;28;8899;-77
2024/01/01 07:32:15;;;;;;;;;13.80;13.00;;;;;9.88;41.47;98785.59;5028297;28;8879;-77
2024/01/01 07:34:44;;;;;;;;;20.00;19.40;;;;;9.89;41.55;98780.28;5028520;28;8877;-77
2024/01/01 07:37:14;;;;;;;;;20.80;18.40;;;;;9.86;41.68;98783.00;5028630;28;8873;-76
2024/01/01 07:39:42;;;;;;;;;22.40;18.40;;;;;10.07;41.29;98772.75;4995767;28;8861;-77
2024/01/01 07:42:11;;;;;;;;;15.00;14.00;;;;;9.98;41.31;98774.75;5028223;28;8853;-79
2024/01/01 07:44:41;;;;;;;;;20.20;19.40;;;;;10.09;41.20;98781.44;5028272;28;9111;-77
2024/01/01 07:47:12;;;;;;;;;18.20;16.00;;;;;10.09;41.14;98781.44;5027957;28;8868;-77
2024/01/01 07:49:44;;;;;;;;;16.40;14.40;;;;;10.19;41.18;98767.09;5069665;28;8927;-77
2024/01/01 07:52:14;;;;;;;;;20.60;18.40;;;;;10.35;41.34;98765.72;5070805;28;8846;-77
2024/01/01 07:54:43;;;;;;;;;18.40;15.80;;;;;10.36;41.42;98753.44;5070612;28;8877;-78
2024/01/01 07:57:12;;;;;;;;;19.80;16.80;;;;;10.44;41.49;98734.78;5070327;28;8909;-76
2024/01/01 07:59:40;;;;;;;;;16.20;16.20;;;;;10.59;41.23;98729.88;5070280;28;8855;-78
2024/01/01 08:02:09;;;;;;;;;15.40;15.00;;;;;10.45;41.34;98732.09;5070354;28;8846;-78
2024/01/01 08:04:40;;;;;;;;;41.75;37.75;;;;;10.57;41.29;98733.47;5070194;28;8947;-76
2024/01/01 08:07:09;;;;;;;;;16.60;15.00;;;;;10.45;41.09;98736.50;5051402;28;8913;-76
2024/01/01 08:09:37;;;;;;;;;18.80;18.80;;;;;10.35;41.48;98736.81;5070932;28;8870;-77
2024/01/01 08:12:07;;;;;;;;;16.80;15.80;;;;;10.44;41.13;98740.03;5070770;28;8834;-77
2024/01/01 08:14:37;;;;;;;;;14.60;14.00;;;;;10.58;40.60;98746.53;5070419;28;8955;-76
2024/01/01 08:17:06;;;;;;;;;25.20;22.80;;;;;10.47;40.81;98745.19;5070196;28;8831;-77
2024/01/01 08:19:35;;;;;;;;;18.20;17.20;;;;;10.52;40.82;98757.28;5068751;28;8874;-76
2024/01/01 08:22:06;;;;;;;;;18.20;17.40;;;;;10.52;41.01;98752.03;5048818;28;9008;-76
2024/01/01 08:24:35;;;;;;;;;25.00;21.60;;;;;10.49;41.28;98757.38;5000178;28;8858;-77
2024/01/01 08:27:06;;;;;;;;;22.60;18.40;;;;;10.51;41.38;98754.69;5031150;28;9678;-76
2024/01/01 08:29:35;;;;;;;;;18.80;17.60;;;;;10.57;40.73;98760.59;5047608;28;8858;-77
2024/01/01 08:32:05;;;;;;;;;20.40;18.20;;;;;10.57;40.72;98765.00;4999030;28;8843;-79
2024/01/01 08:34:34;;;;;;;;;24.20;23.60;;;;;10.70;40.78;98757.56;5030545;28;8862;-76
2024/01/01 08:37:05;;;;;;;;;24.00;22.40;;;;;10.86;40.59;98760.53;5007313;28;8851;-77
2024/01/01 08:39:34;;;;;;;;;23.40;23.40;;;;;10.92;40.63;98763.81;5023998;28;8878;-77
2024/01/01 08:42:03;;;;;;;;;24.80;22.40;;;;;10.88;40.83;98767.47;5007295;28;8850;-76
2024/01/01 08:44:32;;;;;;;;;22.00;19.60;;;;;10.96;40.23;98775.09;4990919;28;8838;-77
2024/01/01 08:47:01;;;;;;;;;19.20;19.20;;;;;10.82;40.84;98770.28;5007195;28;8871;-78
2024/01/01 08:49:30;;;;;;;;;22.40;19.00;;;;;10.92;40.75;98770.88;5007024;28;8874;-77
2024/01/01 08:51:59;;;;;;;;;21.20;20.40;;;;;11.13;40.06;98782.41;4974880;28;8839;-80
2024/01/01 08:54:29;;;;;;;;;18.40;16.60;;;;;11.15;40.09;98784.03;5045749;28;8980;-77
2024/01/01 08:56:58;;;;;;;;;23.60;22.20;;;;;11.38;39.71;98785.84;5030364;28;8886;-78
2024/01/01 08:59:27;;;;;;;;;8.00;8.00;;;;;11.45;39.86;98780.38;5030347;28;8862;-78
2024/01/01 09:01:56;;;;;;;;;21.00;18.00;;;;;11.48;39.38;98764.47;5046931;28;8869;-78
2024/01/01 09:04:25;;;;;;;;;17.80;17.80;;;;;11.34;39.73;98755.31;5013927;28;8916;-78
2024/01/01 09:06:54;;;;;;;;;14.20;14.20;;;;;11.37;40.01;98763.09;5046654;28;8854;-77
2024/01/01 09:09:23;;;;;;;;;11.20;9.40;;;;;11.34;39.90;98755.31;5067815;28;8897;-75
2024/01/01 09:11:53;;;;;;;;;15.60;15.40;;;;;11.42;39.43;98751.53;5069215;28;8838;-77
2024/01/01 09:14:22;;;;;;;;;16.80;14.60;;;;;11.31;39.98;98752.81;5046332;28;8850;-78
2024/01/01 09:16:52;;;;;;;;;17.00;16.20;;;;;11.37;39.80;98749.09;5047698;28;8905;-76
2024/01/01 09:19:21;;;;;;;;;15.60;14.60;;;;;11.29;40.19;98749.34;5047314;28;8861;-77
2024/01/01 09:21:50;;;;;;;;;14.60;14.20;;;;;11.60;39.40;98755.22;5046708;28;8931;-78
2024/01/01 09:24:20;;;;;;;;;14.60;13.80;;;;;11.70;39.82;98754.84;5014265;28;8973;-77
2024/01/01 09:26:49;;;;;;;;;18.40;16.00;;;;;11.86;39.54;98749.00;5006877;28;9010;-77
2024/01/01 09:29:19;;;;;;;;;19.40;16.80;;;;;11.98;39.24;98752.97;5007088;28;8887;-77
2024/01/01 09:31:49;;;;;;;;;17.00;16.40;;;;;12.14;38.98;98744.38;4990276;28;8875;-79
2024/01/01 09:34:17;;;;;;;;;15.80;14.00;;;;;12.33;38.38;98746.25;5006940;28;10058;-79
2024/01/01 09:36:47;;;;;;;;;17.00;16.60;;;;;12.19;38.83;98753.88;5006717;28;8932;-78
2024/01/01 09:39:30;;;;;;;;;13.80;13.80;;;;;12.19;38.57;98744.19;4925909;28;8973;-78
2024/01/01 09:42:02;;;;;;;;;17.00;17.00;;;;;12.20;38.76;98752.94;5006275;28;8859;-78
2024/01/01 09:44:33;;;;;;;;;19.00;17.80;;;;;12.40;38.55;98738.97;5006399;28;8890;-76
2024/01/01 09:47:05;;;;;;;;;17.80;17.80;;;;;12.33;38.78;98741.84;5006341;28;8898;-77
2024/01/01 09:49:34;;;;;;;;;19.40;19.40;;;;;12.22;38.93;98735.28;5006433;28;8910;-77
2024/01/01 09:52:06;;;;;;;;;13.80;13.20;;;;;12.12;38.99;98740.06;5016129;28;8860;-79
2024/01/01 09:54:35;;;;;;;;;17.40;16.00;;;;;12.33;38.73;98738.34;4977136;28;9660;-77
2024/01/01 09:57:05;;;;;;;;;18.40;14.60;;;;;12.16;39.24;98736.38;5028068;28;8860;-77
2024/01/01 09:59:36;;;;;;;;;19.80;16.80;;;;;12.39;38.78;98735.47;5048515;28;8980;-76
2024/01/01 10:02:07;;;;;;;;;15.40;13.40;;;;;12.30;39.10;98725.31;5048377;28;8837;-78
2024/01/01 10:04:37;;;;;;;;;25.40;22.20;;;;;12.30;39.01;98736.69;5029680;28;8986;-77
2024/01/01 10:07:06;;;;;;;;;15.40;13.40;;;;;12.40;38.73;98724.00;5047126;28;8821;-76
2024/01/01 10:09:47;;;;;;;;;16.40;15.00;;;;;12.54;38.71;98726.91;5046926;28;8865;-77
2024/01/01 10:12:21;;;;;;;;;14.60;14.20;;;;;12.97;38.10;98736.56;5048462;28;8853;-77
2024/01/01 10:14:53;;;;;;;;;14.20;12.60;;;;;12.90;38.01;98730.69;5030503;28;8884;-76
2024/01/01 10:17:23;;;;;;;;;2.40;2.40;;;;;13.11;37.63;98728.91;5048894;28;8861;-77
2024/01/01 10:19:53;;;;;;;;;10.60;10.20;;;;;13.34;37.45;98740.22;5056272;28;8890;-76
2024/01/01 10:22:23;;;;;;;;;10.00;10.00;;;;;13.61;36.69;98732.81;5049410;28;8846;-76
2024/01/01 10:24:54;;;;;;;;;8.20;8.20;;;;;13.73;36.53;98732.22;5068731;28;8854;-77
2024/01/01 10:27:23;;;;;;;;;10.80;10.20;;;;;14.02;35.99;98738.81;5049590;28;8855;-77
2024/01/01 10:29:54;;;;;;;;;11.00;10.40;;;;;14.40;35.76;98741.38;5068248;28;8916;-76
2024/01/01 10:32:24;;;;;;;;;10.60;9.00;;;;;14.43;35.21;98737.69;5067742;28;8896;-77
2024/01/01 10:34:53;;;;;;;;;13.00;13.00;;;;;14.63;35.11;98739.34;5068253;28;8862;-77
2024/01/01 10:37:25;;;;;;;;;34.40;31.60;;;;;14.67;34.92;98744.41;5067934;28;8835;-77
2024/01/01 10:39:58;;;;;;;;;14.20;14.20;;;;;14.82;34.70;98741.94;5067862;28;8939;-78
2024/01/01 10:42:33;;;;;;;;;16.20;16.20;;;;;14.91;34.68;98754.72;5068248;28;8927;-75
2024/01/01 10:45:04;;;;;;;;;10.80;9.00;;;;;14.60;34.84;98764.19;5070299;28;8854;-75
2024/01/01 10:47:36;;;;;;;;;14.40;13.60;;;;;14.43;35.13;98777.34;5070258;28;8884;-77
2024/01/01 10:50:17;;;;;;;;;11.80;11.80;;;;;14.18;35.94;98786.47;5071501;28;8854;-78
2024/01/01 10:53:05;;;;;;;;;16.20;14.40;;;;;14.65;35.59;98785.09;5037990;28;8834;-78
2024/01/01 10:55:51;;;;;;;;;14.20;14.00;;;;;13.96;36.34;98797.25;5071592;28;8954;-77
2024/01/01 10:58:38;;;;;;;;;10.80;10.80;;;;;13.71;37.74;98794.81;5071460;28;8826;-76
2024/01/01 11:01:12;;;;;;;;;11.00;10.60;;;;;13.43;39.02;98806.66;5071741;28;8830;-77
2024/01/01 11:03:46;;;;;;;;;9.00;8.20;;;;;12.80;39.79;98814.59;5071368;28;8838;-80
2024/01/01 11:06:24;;;;;;;;;12.80;11.60;;;;;12.57;40.76;98838.44;5071751;28;8854;-77
2024/01/01 11:08:55;;;;;;;;;13.40;12.20;;;;;11.51;43.87;98836.25;5070171;28;8888;-78
2024/01/01 11:11:30;;;;;;;;;20.60;20.40;;;;;10.70;46.03;98863.53;5071597;28;8947;-76
2024/01/01 11:14:01;;;;;;;;;35.00;30.40;;;;;9.62;49.32;98863.31;5069940;28;8857;-77
2024/01/01 11:16:49;;;;;;;;;30.00;28.20;;;;;9.31;50.72;98879.88;5071357;28;8850;-77
2024/01/01 11:19:38;;;;;;;;;28.40;28.00;;;;;9.20;51.37;98876.66;5069486;28;8865;-77
2024/01/01 11:22:41;;;;;;;;;31.60;27.80;;;;;9.08;52.14;98874.34;5052205;28;8969;-78
2024/01/01 11:25:10;;;;;;;;;31.80;28.80;;;;;8.60;53.90;98884.22;4976507;28;8830;-77
2024/01/01 11:27:47;;;;;;;;;30.80;29.00;;;;;8.57;55.07;98897.44;5008614;28;8882;-78
2024/01/01 11:30:17;;;;;;;;;36.40;32.60;;;;;9.01;53.83;98911.22;5008567;28;9639;-79
2024/01/01 11:32:48;;;;;;;;;35.60;32.40;;;;;9.42;53.35;98918.91;5008676;28;8996;-76
2024/01/01 11:35:18;;;;;;;;;23.60;23.60;;;;;9.14;54.70;98948.47;4976476;28;9024;-77
2024/01/01 11:37:48;;;;;;;;;39.40;34.20;;;;;8.55;57.39;98953.34;4992210;28;8850;-77
2024/01/01 11:40:17;;;;;;;;;37.80;32.60;;;;;8.81;56.33;98945.75;4992056;28;9014;-77
2024/01/01 11:42:47;;;;;;;;;35.00;30.20;;;;;8.84;55.88;98943.06;5008470;28;8957;-78
2024/01/01 11:45:18;;;;;;;;;34.60;31.60;;;;;8.32;58.47;98967.81;5008311;28;8834;-77